N8119Q -KAVX

Flight info

Callsign N8119Q
Flight time N/A
Altitude VFR
Route VFR+ FF
Aircraft DA50/L-VGD/C

Departure

Time N/A
Airport -

Arrival

Time 2026-05-05 01:55
Airport Catalina Airport (KAVX)
Time Latitude Longitude Altitude Speed Heading
2026-05-05 01:15 34.02149 -117.28164 14528 ft 145 kts 236°
2026-05-05 01:16 34.01606 -117.29182 14526 ft 145 kts 236°
2026-05-05 01:16 34.01057 -117.30205 14528 ft 145 kts 235°
2026-05-05 01:16 34.00498 -117.31244 14523 ft 146 kts 235°
2026-05-05 01:16 33.99949 -117.32268 14517 ft 145 kts 236°
2026-05-05 01:17 33.99400 -117.33292 14520 ft 146 kts 235°
2026-05-05 01:17 33.98845 -117.34313 14518 ft 145 kts 232°
2026-05-05 01:17 33.98005 -117.34952 14266 ft 156 kts 188°
2026-05-05 01:17 33.97055 -117.34253 13915 ft 187 kts 121°
2026-05-05 01:18 33.97263 -117.32701 13417 ft 208 kts 41°
2026-05-05 01:18 33.98538 -117.32332 13103 ft 187 kts 327°
2026-05-05 01:18 33.99200 -117.33442 12737 ft 164 kts 261°
2026-05-05 01:18 33.98542 -117.34461 12148 ft 170 kts 195°
2026-05-05 01:19 33.97314 -117.34319 11548 ft 179 kts 176°
2026-05-05 01:19 33.96098 -117.34426 10994 ft 169 kts 214°
2026-05-05 01:19 33.95375 -117.35469 10506 ft 163 kts 236°
2026-05-05 01:19 33.94570 -117.36450 9927 ft 170 kts 217°
2026-05-05 01:20 33.93576 -117.37236 9307 ft 171 kts 233°
2026-05-05 01:20 33.93007 -117.38457 8840 ft 166 kts 241°
2026-05-05 01:20 33.92607 -117.39723 8509 ft 158 kts 255°
2026-05-05 01:20 33.92333 -117.40978 8142 ft 156 kts 254°
2026-05-05 01:21 33.91923 -117.42122 8051 ft 140 kts 239°
2026-05-05 01:21 33.91401 -117.43018 8060 ft 124 kts 239°
2026-05-05 01:21 33.90952 -117.43851 8054 ft 114 kts 241°
2026-05-05 01:21 33.90547 -117.44626 8050 ft 105 kts 241°
2026-05-05 01:22 33.90172 -117.45353 8048 ft 100 kts 241°
2026-05-05 01:22 33.89828 -117.46030 8036 ft 85 kts 242°
2026-05-05 01:22 33.89534 -117.46611 7748 ft 81 kts 243°
2026-05-05 01:22 33.89240 -117.47190 7431 ft 81 kts 244°
2026-05-05 01:23 33.88949 -117.47763 7109 ft 81 kts 243°
2026-05-05 01:23 33.88651 -117.48349 6756 ft 83 kts 242°
2026-05-05 01:23 33.88320 -117.48996 6541 ft 106 kts 240°
2026-05-05 01:23 33.87884 -117.49829 6533 ft 127 kts 240°
2026-05-05 01:24 33.87394 -117.50773 6542 ft 139 kts 239°
2026-05-05 01:24 33.86870 -117.51789 6544 ft 146 kts 240°
2026-05-05 01:24 33.86328 -117.52850 6544 ft 151 kts 240°
2026-05-05 01:24 33.85772 -117.53938 6542 ft 153 kts 239°
2026-05-05 01:25 33.85226 -117.55011 6539 ft 147 kts 240°
2026-05-05 01:25 33.84707 -117.56032 6536 ft 140 kts 241°
2026-05-05 01:25 33.84205 -117.57014 6534 ft 137 kts 240°
2026-05-05 01:25 33.83712 -117.57981 6531 ft 135 kts 240°
2026-05-05 01:26 33.83223 -117.58937 6529 ft 133 kts 240°
2026-05-05 01:26 33.82738 -117.59885 6531 ft 134 kts 240°
2026-05-05 01:26 33.82246 -117.60852 6530 ft 136 kts 240°
2026-05-05 01:26 33.81745 -117.61826 6540 ft 138 kts 240°
2026-05-05 01:27 33.81238 -117.62816 6538 ft 140 kts 241°
2026-05-05 01:27 33.80729 -117.63812 6535 ft 139 kts 241°
2026-05-05 01:27 33.80220 -117.64804 6537 ft 139 kts 240°
2026-05-05 01:27 33.79715 -117.65789 6530 ft 137 kts 240°
2026-05-05 01:28 33.79216 -117.66763 6530 ft 137 kts 240°
2026-05-05 01:28 33.78719 -117.67732 6528 ft 136 kts 240°
2026-05-05 01:28 33.78221 -117.68705 6530 ft 137 kts 240°
2026-05-05 01:28 33.77720 -117.69683 6527 ft 137 kts 240°
2026-05-05 01:29 33.77220 -117.70655 6526 ft 137 kts 240°
2026-05-05 01:29 33.76711 -117.71643 6389 ft 144 kts 239°
2026-05-05 01:29 33.75886 -117.72407 6139 ft 158 kts 212°
2026-05-05 01:29 33.74899 -117.72998 5891 ft 159 kts 210°
2026-05-05 01:30 33.73905 -117.73588 5636 ft 159 kts 210°
2026-05-05 01:30 33.72930 -117.74175 5381 ft 154 kts 211°
2026-05-05 01:30 33.71995 -117.74753 5128 ft 149 kts 211°
2026-05-05 01:30 33.71084 -117.75318 4878 ft 146 kts 210°
2026-05-05 01:31 33.70192 -117.75867 4622 ft 142 kts 212°
2026-05-05 01:31 33.69339 -117.76375 4548 ft 129 kts 210°
2026-05-05 01:31 33.68588 -117.76823 4538 ft 117 kts 211°
2026-05-05 01:31 33.67876 -117.77249 4539 ft 109 kts 212°
2026-05-05 01:32 33.67238 -117.77668 4536 ft 102 kts 219°
2026-05-05 01:32 33.66688 -117.78170 4535 ft 97 kts 221°
2026-05-05 01:32 33.66162 -117.78655 4538 ft 94 kts 223°
2026-05-05 01:32 33.65665 -117.79189 4439 ft 107 kts 225°
2026-05-05 01:33 33.65061 -117.79880 4192 ft 133 kts 226°
2026-05-05 01:33 33.64491 -117.80805 3933 ft 146 kts 248°
2026-05-05 01:33 33.64064 -117.81952 3682 ft 156 kts 233°
2026-05-05 01:33 33.63308 -117.82874 3433 ft 153 kts 225°
2026-05-05 01:34 33.62537 -117.83758 3185 ft 154 kts 225°
2026-05-05 01:34 33.61777 -117.84665 2927 ft 153 kts 228°
2026-05-05 01:34 33.61022 -117.85589 2674 ft 156 kts 227°
2026-05-05 01:34 33.60291 -117.86511 2553 ft 145 kts 228°
2026-05-05 01:35 33.59619 -117.87338 2551 ft 133 kts 227°
2026-05-05 01:35 33.58999 -117.88108 2547 ft 124 kts 228°
2026-05-05 01:35 33.58433 -117.88887 2541 ft 124 kts 234°
2026-05-05 01:35 33.57933 -117.89717 2548 ft 124 kts 235°
2026-05-05 01:36 33.57412 -117.90600 2549 ft 136 kts 235°
2026-05-05 01:36 33.56855 -117.91553 2550 ft 144 kts 236°
2026-05-05 01:36 33.56272 -117.92542 2548 ft 145 kts 236°
2026-05-05 01:36 33.55730 -117.93561 2545 ft 145 kts 238°
2026-05-05 01:37 33.55201 -117.94577 2539 ft 142 kts 238°
2026-05-05 01:37 33.54677 -117.95571 2539 ft 140 kts 238°
2026-05-05 01:37 33.54164 -117.96563 2541 ft 140 kts 238°
2026-05-05 01:37 33.53647 -117.97535 2539 ft 137 kts 239°
2026-05-05 01:38 33.53163 -117.98534 2535 ft 139 kts 241°
2026-05-05 01:38 33.52676 -117.99540 2530 ft 140 kts 240°
2026-05-05 01:38 33.52201 -118.00530 2533 ft 139 kts 240°
2026-05-05 01:38 33.51714 -118.01525 2535 ft 137 kts 240°
2026-05-05 01:39 33.51234 -118.02536 2529 ft 138 kts 240°
2026-05-05 01:39 33.50773 -118.03515 2532 ft 136 kts 240°
2026-05-05 01:39 33.50428 -118.04560 2532 ft 135 kts 253°
2026-05-05 01:39 33.50162 -118.05657 2534 ft 139 kts 253°
2026-05-05 01:40 33.49877 -118.06765 2537 ft 140 kts 251°
2026-05-05 01:40 33.49580 -118.07878 2532 ft 141 kts 251°
2026-05-05 01:40 33.49278 -118.09005 2490 ft 144 kts 251°
2026-05-05 01:40 33.48972 -118.10145 2474 ft 143 kts 251°
2026-05-05 01:41 33.48666 -118.11284 2476 ft 144 kts 251°
2026-05-05 01:41 33.48359 -118.12426 2472 ft 144 kts 251°
2026-05-05 01:41 33.48051 -118.13571 2477 ft 145 kts 251°
2026-05-05 01:41 33.47741 -118.14722 2477 ft 145 kts 251°
2026-05-05 01:42 33.47431 -118.15876 2480 ft 146 kts 251°
2026-05-05 01:42 33.47118 -118.17034 2475 ft 146 kts 251°
2026-05-05 01:42 33.46797 -118.18184 2477 ft 145 kts 250°
2026-05-05 01:42 33.46479 -118.19327 2480 ft 145 kts 250°
2026-05-05 01:43 33.46159 -118.20475 2480 ft 145 kts 251°
2026-05-05 01:43 33.45836 -118.21614 2478 ft 144 kts 250°
2026-05-05 01:43 33.45517 -118.22754 2479 ft 145 kts 250°
2026-05-05 01:43 33.45195 -118.23892 2484 ft 144 kts 250°
2026-05-05 01:44 33.44986 -118.24647 2486 ft 145 kts 251°
2026-05-05 01:44 33.44554 -118.26172 2484 ft 144 kts 250°
2026-05-05 01:44 33.44343 -118.26926 2487 ft 144 kts 250°
2026-05-05 01:44 33.44027 -118.28070 2487 ft 145 kts 250°
2026-05-05 01:45 33.43711 -118.29212 2488 ft 145 kts 250°
2026-05-05 01:45 33.43179 -118.30204 2508 ft 144 kts 223°
2026-05-05 01:45 33.42557 -118.31087 2636 ft 136 kts 237°
2026-05-05 01:45 33.42077 -118.32041 2768 ft 132 kts 240°
2026-05-05 01:46 33.41625 -118.32997 2891 ft 131 kts 240°
2026-05-05 01:46 33.41185 -118.33944 3012 ft 130 kts 241°
2026-05-05 01:46 33.40749 -118.34889 3141 ft 130 kts 241°
2026-05-05 01:46 33.40314 -118.35835 3268 ft 130 kts 241°
2026-05-05 01:47 33.39875 -118.36788 3389 ft 132 kts 241°
2026-05-05 01:47 33.39431 -118.37761 3394 ft 135 kts 244°
2026-05-05 01:47 33.39202 -118.38871 3398 ft 142 kts 268°
2026-05-05 01:47 33.39426 -118.40041 3394 ft 149 kts 293°
2026-05-05 01:48 33.40103 -118.40985 3391 ft 153 kts 320°
2026-05-05 01:48 33.41093 -118.41437 3388 ft 154 kts 347°
2026-05-05 01:48 33.42163 -118.41343 3395 ft 154 kts
2026-05-05 01:48 33.43224 -118.41177 3398 ft 154 kts
2026-05-05 01:49 33.44287 -118.41018 3398 ft 155 kts
2026-05-05 01:49 33.45362 -118.40863 3398 ft 156 kts
2026-05-05 01:49 33.46429 -118.40851 3398 ft 151 kts 339°
2026-05-05 01:49 33.47268 -118.41526 3403 ft 144 kts 314°
2026-05-05 01:50 33.48014 -118.42330 3416 ft 144 kts 313°
2026-05-05 01:50 33.48755 -118.43125 3437 ft 143 kts 313°
2026-05-05 01:50 33.49574 -118.43805 3427 ft 148 kts 337°
2026-05-05 01:50 33.50617 -118.43768 3416 ft 157 kts 16°
2026-05-05 01:51 33.51440 -118.42896 3407 ft 164 kts 59°
2026-05-05 01:51 33.51578 -118.41561 3371 ft 165 kts 105°
2026-05-05 01:51 33.50957 -118.40468 3360 ft 158 kts 149°
2026-05-05 01:51 33.49947 -118.40129 3339 ft 150 kts 186°
2026-05-05 01:52 33.48922 -118.40280 3121 ft 146 kts 193°
2026-05-05 01:52 33.47925 -118.40446 2867 ft 143 kts 192°
2026-05-05 01:52 33.46943 -118.40597 2607 ft 141 kts 191°
2026-05-05 01:52 33.45978 -118.40741 2331 ft 138 kts 189°
2026-05-05 01:53 33.45071 -118.40873 2289 ft 125 kts 190°
2026-05-05 01:53 33.44214 -118.40999 2153 ft 124 kts 189°
2026-05-05 01:53 33.43363 -118.41080 1937 ft 108 kts 184°
2026-05-05 01:53 33.42775 -118.41053 1725 ft 79 kts 176°
2026-05-05 01:54 33.42227 -118.40945 1657 ft 80 kts 172°
2026-05-05 01:54 33.41673 -118.40762 1668 ft 83 kts 163°
2026-05-05 01:54 33.41136 -118.40739 1618 ft 77 kts 199°
2026-05-05 01:54 33.40796 -118.41154 1572 ft 71 kts 228°
2026-05-05 01:55 33.40498 -118.41583 1583 ft 55 kts 228°
2026-05-05 01:55 33.40387 -118.41698 1593 ft 10 kts 136°
2026-05-05 01:55 33.40352 -118.41633 1593 ft 8 kts 123°
2026-05-05 01:55 33.40336 -118.41556 1590 ft 10 kts 104°
2026-05-05 01:56 33.40336 -118.41541 1590 ft 0 kts 324°
2026-05-05 01:56 33.40336 -118.41540 1590 ft 0 kts 324°